TimeEST,TemperatureF,Dew PointF,Humidity,Sea Level PressureIn,VisibilityMPH,Wind Direction,Wind SpeedMPH,Gust SpeedMPH,PrecipitationIn,Events,Conditions,WindDirDegrees,DateUTC
12:53 AM,70.0,66.0,87,30.01,10.0,SE,3.5,-,N/A,,Clear,140,2013-12-04 05:53:00
1:53 AM,69.1,66.0,90,30.01,10.0,Calm,Calm,-,N/A,,Clear,0,2013-12-04 06:53:00
2:53 AM,66.9,64.9,93,30.01,10.0,Calm,Calm,-,N/A,,Overcast,0,2013-12-04 07:53:00
3:53 AM,66.0,64.9,96,30.01,10.0,Calm,Calm,-,N/A,,Clear,0,2013-12-04 08:53:00
4:53 AM,66.0,64.9,96,30.01,10.0,Calm,Calm,-,N/A,,Partly Cloudy,0,2013-12-04 09:53:00
5:53 AM,66.9,66.0,97,30.02,10.0,Calm,Calm,-,N/A,,Clear,0,2013-12-04 10:53:00
6:53 AM,66.9,66.0,97,30.04,10.0,ESE,3.5,-,N/A,,Clear,120,2013-12-04 11:53:00
7:53 AM,72.0,68.0,87,30.06,10.0,Calm,Calm,-,N/A,,Clear,0,2013-12-04 12:53:00
8:53 AM,77.0,68.0,74,30.09,10.0,SSE,3.5,-,N/A,,Clear,150,2013-12-04 13:53:00
9:53 AM,80.1,68.0,67,30.10,10.0,SE,9.2,-,N/A,,Partly Cloudy,140,2013-12-04 14:53:00
10:53 AM,79.0,66.0,64,30.09,10.0,SE,9.2,-,N/A,,Scattered Clouds,140,2013-12-04 15:53:00
11:53 AM,81.0,66.0,60,30.08,10.0,SSE,9.2,-,N/A,,Partly Cloudy,160,2013-12-04 16:53:00
12:53 PM,82.0,66.0,58,30.06,10.0,SE,9.2,-,N/A,,Partly Cloudy,130,2013-12-04 17:53:00
1:53 PM,80.1,63.0,56,30.04,10.0,Variable,5.8,-,N/A,,Mostly Cloudy,0,2013-12-04 18:53:00
2:53 PM,80.1,64.9,60,30.04,10.0,ESE,8.1,-,N/A,,Overcast,110,2013-12-04 19:53:00
3:53 PM,80.1,64.9,60,30.03,10.0,ESE,6.9,-,N/A,,Clear,120,2013-12-04 20:53:00
4:53 PM,78.1,66.0,66,30.04,10.0,ESE,8.1,-,N/A,,Clear,120,2013-12-04 21:53:00
5:53 PM,73.9,66.0,76,30.06,10.0,ESE,3.5,-,N/A,,Clear,110,2013-12-04 22:53:00
6:53 PM,71.1,66.0,84,30.08,10.0,East,3.5,-,N/A,,Clear,90,2013-12-04 23:53:00
7:53 PM,71.1,66.9,87,30.09,10.0,East,3.5,-,N/A,,Clear,90,2013-12-05 00:53:00
8:53 PM,71.1,66.9,87,30.10,10.0,Calm,Calm,-,N/A,,Clear,0,2013-12-05 01:53:00
9:53 PM,69.1,66.9,93,30.10,10.0,East,4.6,-,N/A,,Clear,100,2013-12-05 02:53:00
10:53 PM,69.1,66.9,93,30.10,10.0,ESE,3.5,-,N/A,,Clear,110,2013-12-05 03:53:00
11:53 PM,71.1,68.0,90,30.09,10.0,ESE,3.5,-,N/A,,Clear,120,2013-12-05 04:53:00